createdAt,value
2023-04-27T00:00:40.706Z,100466.00
2023-04-27T00:03:08.581Z,100460.00
2023-04-27T00:05:40.269Z,100462.00
2023-04-27T00:08:08.516Z,100468.00
2023-04-27T00:10:36.094Z,100463.00
2023-04-27T00:13:04.005Z,100458.00
2023-04-27T00:15:31.632Z,100463.00
2023-04-27T00:18:00.092Z,100461.00
2023-04-27T00:20:27.828Z,100466.00
2023-04-27T00:22:55.439Z,100463.00
2023-04-27T00:25:25.844Z,100463.00
2023-04-27T00:27:53.399Z,100470.00
2023-04-27T00:30:21.171Z,100470.00
2023-04-27T00:32:49.096Z,100459.00
2023-04-27T00:35:17.512Z,100465.00
2023-04-27T00:37:45.113Z,100463.00
2023-04-27T00:40:13.383Z,100465.00
2023-04-27T00:42:41.159Z,100461.00
2023-04-27T00:45:10.809Z,100460.00
2023-04-27T00:47:38.680Z,100461.00
2023-04-27T00:50:08.910Z,100469.00
2023-04-27T00:52:37.795Z,100463.00
2023-04-27T00:55:09.695Z,100462.00
2023-04-27T00:57:37.482Z,100475.00
2023-04-27T01:00:07.494Z,100475.00
2023-04-27T01:02:37.302Z,100466.00
2023-04-27T01:05:06.111Z,100472.00
2023-04-27T01:07:33.818Z,100464.00
2023-04-27T01:10:01.561Z,100471.00
2023-04-27T01:12:29.466Z,100472.00
2023-04-27T01:14:57.188Z,100470.00
2023-04-27T01:17:25.112Z,100472.00
2023-04-27T01:19:55.722Z,100474.00
2023-04-27T01:22:23.648Z,100474.00
2023-04-27T01:24:51.631Z,100473.00
2023-04-27T01:27:19.321Z,100471.00
2023-04-27T01:29:46.826Z,100474.00
2023-04-27T01:32:14.498Z,100468.00
2023-04-27T01:34:42.318Z,100473.00
2023-04-27T01:37:10.170Z,100476.00
2023-04-27T01:39:38.276Z,100475.00
2023-04-27T01:42:06.124Z,100478.00
2023-04-27T01:44:33.900Z,100476.00
2023-04-27T01:47:02.176Z,100483.00
2023-04-27T01:49:29.700Z,100487.00
2023-04-27T01:51:57.312Z,100479.00
2023-04-27T01:54:25.986Z,100485.00
2023-04-27T01:56:54.959Z,100482.00
2023-04-27T01:59:22.886Z,100489.00
2023-04-27T02:01:50.530Z,100492.00
2023-04-27T02:04:18.817Z,100492.00
2023-04-27T02:06:47.199Z,100501.00
2023-04-27T02:09:15.650Z,100500.00
2023-04-27T02:11:43.946Z,100510.00
2023-04-27T02:14:11.749Z,100502.00
2023-04-27T02:16:39.495Z,100509.00
2023-04-27T02:19:07.367Z,100516.00
2023-04-27T02:21:34.932Z,100526.00
2023-04-27T02:24:02.679Z,100526.00
2023-04-27T02:26:30.472Z,100530.00
2023-04-27T02:28:59.592Z,100539.00
2023-04-27T02:31:27.578Z,100530.00
2023-04-27T02:33:55.992Z,100541.00
2023-04-27T02:36:26.120Z,100543.00
2023-04-27T02:38:56.855Z,100549.00
2023-04-27T02:41:24.560Z,100540.00
2023-04-27T02:43:52.301Z,100546.00
2023-04-27T02:46:19.892Z,100547.00
2023-04-27T02:48:47.676Z,100555.00
2023-04-27T02:51:15.637Z,100551.00
2023-04-27T02:53:43.293Z,100548.00
2023-04-27T02:56:10.859Z,100549.00
2023-04-27T02:58:38.517Z,100545.00
2023-04-27T03:01:06.203Z,100551.00
2023-04-27T03:03:34.172Z,100535.00
2023-04-27T03:06:02.292Z,100545.00
2023-04-27T03:08:29.991Z,100548.00
2023-04-27T03:10:58.904Z,100547.00
2023-04-27T03:13:26.581Z,100558.00
2023-04-27T03:15:54.416Z,100548.00
2023-04-27T03:18:22.055Z,100549.00
2023-04-27T03:20:49.797Z,100555.00
2023-04-27T03:23:17.356Z,100552.00
2023-04-27T03:25:45.347Z,100542.00
2023-04-27T03:28:13.080Z,100544.00
2023-04-27T03:30:41.500Z,100555.00
2023-04-27T03:33:09.207Z,100548.00
2023-04-27T03:35:37.234Z,100556.00
2023-04-27T03:38:05.043Z,100556.00
2023-04-27T03:40:32.958Z,100565.00
2023-04-27T03:43:01.163Z,100564.00
2023-04-27T03:45:29.092Z,100563.00
2023-04-27T03:47:56.954Z,100557.00
2023-04-27T03:50:24.728Z,100556.00
2023-04-27T03:52:52.336Z,100559.00
2023-04-27T03:55:21.405Z,100558.00
2023-04-27T03:57:50.212Z,100554.00
2023-04-27T04:00:18.578Z,100552.00
2023-04-27T04:03:12.553Z,100554.00
2023-04-27T04:05:41.113Z,100557.00
2023-04-27T04:08:09.022Z,100556.00
2023-04-27T04:10:36.651Z,100559.00
2023-04-27T04:13:04.443Z,100557.00
2023-04-27T04:15:32.169Z,100559.00
2023-04-27T04:18:00.477Z,100566.00
2023-04-27T04:20:29.004Z,100558.00
2023-04-27T04:22:56.658Z,100572.00
2023-04-27T04:25:26.389Z,100562.00
2023-04-27T04:27:53.932Z,100575.00
2023-04-27T04:30:23.640Z,100573.00
2023-04-27T04:32:51.212Z,100586.00
2023-04-27T04:35:20.102Z,100580.00
2023-04-27T04:37:48.025Z,100580.00
2023-04-27T04:40:16.156Z,100581.00
2023-04-27T04:42:43.851Z,100575.00
2023-04-27T04:45:11.673Z,100575.00
2023-04-27T04:47:39.954Z,100581.00
2023-04-27T04:50:10.226Z,100583.00
2023-04-27T04:52:37.827Z,100594.00
2023-04-27T04:55:07.133Z,100595.00
2023-04-27T04:57:34.947Z,100597.00
2023-04-27T05:00:02.847Z,100600.00
2023-04-27T05:02:31.369Z,100607.00
2023-04-27T05:04:59.361Z,100605.00
2023-04-27T05:07:27.126Z,100607.00
2023-04-27T05:09:54.768Z,100605.00
2023-04-27T05:12:22.450Z,100600.00
2023-04-27T05:14:50.668Z,100601.00
2023-04-27T05:17:18.613Z,100603.00
2023-04-27T05:19:46.279Z,100604.00
2023-04-27T05:22:14.193Z,100606.00
2023-04-27T05:24:42.166Z,100609.00
2023-04-27T05:27:10.007Z,100610.00
2023-04-27T05:29:37.668Z,100612.00
2023-04-27T05:32:07.006Z,100614.00
2023-04-27T05:34:34.874Z,100622.00
2023-04-27T05:37:02.471Z,100625.00
2023-04-27T05:39:30.528Z,100628.00
2023-04-27T05:41:58.518Z,100627.00
2023-04-27T05:44:28.770Z,100627.00
2023-04-27T05:46:56.675Z,100630.00
2023-04-27T05:49:24.432Z,100636.00
2023-04-27T05:51:52.152Z,100634.00
2023-04-27T05:54:19.877Z,100624.00
2023-04-27T05:56:47.616Z,100638.00
2023-04-27T05:59:15.551Z,100630.00
2023-04-27T06:01:43.459Z,100639.00
2023-04-27T06:04:11.411Z,100633.00
2023-04-27T06:06:40.897Z,100636.00
2023-04-27T06:09:08.506Z,100644.00
2023-04-27T06:11:36.515Z,100637.00
2023-04-27T06:14:04.156Z,100652.00
2023-04-27T06:16:31.803Z,100650.00
2023-04-27T06:18:59.781Z,100653.00
2023-04-27T06:21:27.386Z,100648.00
2023-04-27T06:23:55.192Z,100659.00
2023-04-27T06:26:22.969Z,100654.00
2023-04-27T06:28:51.010Z,100652.00
2023-04-27T06:31:18.833Z,100658.00
2023-04-27T06:33:46.743Z,100653.00
2023-04-27T06:36:14.522Z,100654.00
2023-04-27T06:38:42.297Z,100658.00
2023-04-27T06:41:09.951Z,100667.00
2023-04-27T06:43:37.707Z,100664.00
2023-04-27T06:46:07.249Z,100665.00
2023-04-27T06:48:36.200Z,100667.00
2023-04-27T06:51:04.197Z,100666.00
2023-04-27T06:53:32.341Z,100670.00
2023-04-27T06:56:00.566Z,100672.00
2023-04-27T06:58:29.763Z,100680.00
2023-04-27T07:00:57.415Z,100676.00
2023-04-27T07:03:25.829Z,100677.00
2023-04-27T07:05:53.683Z,100673.00
2023-04-27T07:08:24.291Z,100679.00
2023-04-27T07:10:51.893Z,100676.00
2023-04-27T07:13:19.548Z,100685.00
2023-04-27T07:15:47.321Z,100679.00
2023-04-27T07:18:15.190Z,100679.00
2023-04-27T07:20:42.869Z,100678.00
2023-04-27T07:23:11.025Z,100683.00
2023-04-27T07:25:40.526Z,100675.00
2023-04-27T07:28:09.219Z,100674.00
2023-04-27T07:30:37.426Z,100666.00
2023-04-27T07:33:05.923Z,100671.00
2023-04-27T07:35:33.907Z,100661.00
2023-04-27T07:38:04.885Z,100660.00
2023-04-27T07:40:33.069Z,100668.00
2023-04-27T07:43:01.248Z,100675.00
2023-04-27T07:45:32.565Z,100669.00
2023-04-27T07:48:02.538Z,100680.00
2023-04-27T07:50:31.300Z,100673.00
2023-04-27T07:52:59.692Z,100665.00
2023-04-27T07:55:27.670Z,100682.00
2023-04-27T07:57:56.803Z,100677.00
2023-04-27T08:00:25.785Z,100679.00
2023-04-27T08:02:55.379Z,100675.00
2023-04-27T08:05:23.989Z,100668.00
2023-04-27T08:07:54.607Z,100676.00
2023-04-27T08:10:23.633Z,100676.00
2023-04-27T08:12:51.771Z,100675.00
2023-04-27T08:15:21.179Z,100679.00
2023-04-27T08:17:48.905Z,100675.00
2023-04-27T08:20:16.768Z,100681.00
2023-04-27T08:22:44.841Z,100683.00
2023-04-27T08:25:12.781Z,100675.00
2023-04-27T08:27:40.858Z,100682.00
2023-04-27T08:30:09.326Z,100676.00
2023-04-27T08:32:37.198Z,100674.00
2023-04-27T08:35:05.793Z,100679.00
2023-04-27T08:37:33.664Z,100676.00
2023-04-27T08:40:01.418Z,100685.00
2023-04-27T08:42:30.973Z,100677.00
2023-04-27T08:44:58.798Z,100665.00
2023-04-27T08:47:39.000Z,100675.00
2023-04-27T08:50:11.090Z,100665.00
2023-04-27T08:52:39.007Z,100668.00
2023-04-27T08:55:08.753Z,100672.00
2023-04-27T08:57:36.642Z,100667.00
2023-04-27T09:00:12.990Z,100670.00
2023-04-27T09:02:47.966Z,100667.00
2023-04-27T09:05:24.259Z,100664.00
2023-04-27T09:08:00.431Z,100667.00
2023-04-27T09:10:29.832Z,100667.00
2023-04-27T09:13:01.582Z,100663.00
2023-04-27T09:15:30.172Z,100664.00
2023-04-27T09:17:59.245Z,100663.00
2023-04-27T09:20:27.512Z,100660.00
2023-04-27T09:22:58.676Z,100652.00
2023-04-27T09:25:29.629Z,100656.00
2023-04-27T09:27:59.388Z,100655.00
2023-04-27T09:30:31.215Z,100663.00
2023-04-27T09:33:02.396Z,100654.00
2023-04-27T09:35:32.419Z,100658.00
2023-04-27T09:38:01.245Z,100666.00
2023-04-27T09:40:31.473Z,100655.00
2023-04-27T09:43:04.630Z,100656.00
2023-04-27T09:45:34.641Z,100658.00
2023-04-27T09:48:03.400Z,100658.00
2023-04-27T09:50:38.089Z,100666.00
2023-04-27T09:53:15.933Z,100660.00
2023-04-27T09:56:26.468Z,100659.00
2023-04-27T09:59:10.777Z,100658.00
2023-04-27T10:01:57.585Z,100655.00
2023-04-27T10:04:58.787Z,100654.00
2023-04-27T10:07:29.890Z,100652.00
2023-04-27T10:10:03.132Z,100644.00
2023-04-27T10:12:38.545Z,100648.00
2023-04-27T10:15:17.743Z,100650.00
2023-04-27T10:17:59.071Z,100647.00
2023-04-27T10:20:32.967Z,100647.00
2023-04-27T10:23:01.332Z,100646.00
2023-04-27T10:25:43.321Z,100653.00
2023-04-27T10:28:18.189Z,100651.00
2023-04-27T10:30:49.255Z,100657.00
2023-04-27T10:33:20.613Z,100657.00
2023-04-27T10:36:00.852Z,100655.00
2023-04-27T10:38:31.174Z,100656.00
2023-04-27T10:41:05.850Z,100659.00
2023-04-27T10:43:36.223Z,100657.00
2023-04-27T10:46:15.294Z,100659.00
2023-04-27T10:48:45.677Z,100653.00
2023-04-27T10:51:18.222Z,100654.00
2023-04-27T10:53:46.101Z,100661.00
2023-04-27T10:56:13.894Z,100653.00
2023-04-27T10:58:48.795Z,100659.00
2023-04-27T11:01:30.053Z,100647.00
2023-04-27T11:04:02.776Z,100651.00
2023-04-27T11:06:35.312Z,100645.00
2023-04-27T11:09:03.255Z,100644.00
2023-04-27T11:11:31.234Z,100645.00
2023-04-27T11:13:59.203Z,100638.00
2023-04-27T11:16:27.149Z,100636.00
2023-04-27T11:18:55.184Z,100635.00
2023-04-27T11:21:23.910Z,100647.00
2023-04-27T11:23:51.582Z,100639.00
2023-04-27T11:26:22.265Z,100635.00
2023-04-27T11:29:09.682Z,100634.00
2023-04-27T11:31:49.605Z,100634.00
2023-04-27T11:34:22.841Z,100639.00
2023-04-27T11:37:18.042Z,100640.00
2023-04-27T11:39:46.860Z,100643.00
2023-04-27T11:42:25.486Z,100637.00
2023-04-27T11:45:08.357Z,100638.00
2023-04-27T11:47:36.293Z,100643.00
2023-04-27T11:50:08.338Z,100638.00
2023-04-27T11:52:40.450Z,100638.00
2023-04-27T11:55:11.019Z,100631.00
2023-04-27T11:57:39.931Z,100639.00
2023-04-27T12:00:11.600Z,100633.00
2023-04-27T12:02:44.277Z,100633.00
2023-04-27T12:05:13.957Z,100633.00
2023-04-27T12:07:43.836Z,100638.00
2023-04-27T12:10:12.108Z,100639.00
2023-04-27T12:12:39.948Z,100636.00
2023-04-27T12:15:08.833Z,100638.00
2023-04-27T12:17:36.502Z,100631.00
2023-04-27T12:20:05.226Z,100625.00
2023-04-27T12:22:33.590Z,100627.00
2023-04-27T12:25:01.942Z,100623.00
2023-04-27T12:27:29.673Z,100619.00
2023-04-27T12:29:59.735Z,100614.00
2023-04-27T12:32:28.249Z,100623.00
2023-04-27T12:34:55.803Z,100621.00
2023-04-27T12:37:25.418Z,100615.00
2023-04-27T12:39:55.559Z,100619.00
2023-04-27T12:42:24.716Z,100623.00
2023-04-27T12:44:53.470Z,100620.00
2023-04-27T12:47:43.110Z,100621.00
2023-04-27T12:50:10.898Z,100626.00
2023-04-27T12:52:38.809Z,100616.00
2023-04-27T12:55:15.232Z,100615.00
2023-04-27T12:57:49.144Z,100612.00
2023-04-27T13:00:17.713Z,100618.00
2023-04-27T13:02:46.502Z,100612.00
2023-04-27T13:05:14.998Z,100614.00
2023-04-27T13:07:42.757Z,100618.00
2023-04-27T13:10:11.869Z,100614.00
2023-04-27T13:12:39.808Z,100622.00
2023-04-27T13:15:08.646Z,100609.00
2023-04-27T13:17:36.499Z,100608.00
2023-04-27T13:20:04.836Z,100601.00
2023-04-27T13:22:32.767Z,100601.00
2023-04-27T13:25:00.601Z,100607.00
2023-04-27T13:27:28.919Z,100607.00
2023-04-27T13:29:58.253Z,100601.00
2023-04-27T13:32:26.109Z,100594.00
2023-04-27T13:34:53.956Z,100596.00
2023-04-27T13:37:22.200Z,100593.00
2023-04-27T13:39:49.788Z,100602.00
2023-04-27T13:42:17.717Z,100604.00
2023-04-27T13:44:45.441Z,100603.00
2023-04-27T13:47:13.260Z,100606.00
2023-04-27T13:49:40.873Z,100606.00
2023-04-27T13:52:08.644Z,100592.00
2023-04-27T13:54:36.836Z,100599.00
2023-04-27T13:57:04.677Z,100606.00
2023-04-27T13:59:32.387Z,100604.00
2023-04-27T14:02:00.115Z,100600.00
2023-04-27T14:04:27.742Z,100600.00
2023-04-27T14:06:55.529Z,100598.00
2023-04-27T14:09:24.627Z,100599.00
2023-04-27T14:11:56.772Z,100593.00
2023-04-27T14:14:25.244Z,100581.00
2023-04-27T14:16:57.566Z,100586.00
2023-04-27T14:19:25.776Z,100593.00
2023-04-27T14:21:53.947Z,100582.00
2023-04-27T14:24:21.646Z,100580.00
2023-04-27T14:26:51.448Z,100580.00
2023-04-27T14:29:19.731Z,100583.00
2023-04-27T14:31:48.314Z,100593.00
2023-04-27T14:34:16.192Z,100581.00
2023-04-27T14:36:44.279Z,100581.00
2023-04-27T14:39:12.672Z,100580.00
2023-04-27T14:41:40.537Z,100583.00
2023-04-27T14:44:09.136Z,100586.00
2023-04-27T14:46:37.518Z,100570.00
2023-04-27T14:49:05.474Z,100571.00
2023-04-27T14:51:33.927Z,100573.00
2023-04-27T14:54:02.929Z,100572.00
2023-04-27T14:56:31.310Z,100563.00
2023-04-27T14:58:59.135Z,100563.00
2023-04-27T15:01:27.404Z,100562.00
2023-04-27T15:03:58.352Z,100561.00
2023-04-27T15:06:29.093Z,100563.00
2023-04-27T15:08:57.327Z,100562.00
2023-04-27T15:11:24.852Z,100568.00
2023-04-27T15:13:52.457Z,100561.00
2023-04-27T15:16:20.656Z,100559.00
2023-04-27T15:18:48.379Z,100556.00
2023-04-27T15:21:16.467Z,100552.00
2023-04-27T15:23:44.204Z,100545.00
2023-04-27T15:26:12.085Z,100554.00
2023-04-27T15:28:39.669Z,100545.00
2023-04-27T15:31:07.636Z,100554.00
2023-04-27T15:33:35.630Z,100548.00
2023-04-27T15:36:03.903Z,100550.00
2023-04-27T15:38:31.569Z,100558.00
2023-04-27T15:40:59.535Z,100553.00
2023-04-27T15:43:27.417Z,100544.00
2023-04-27T15:45:55.944Z,100550.00
2023-04-27T15:48:23.913Z,100548.00
2023-04-27T15:50:51.657Z,100551.00
2023-04-27T15:53:19.350Z,100541.00
2023-04-27T15:55:47.224Z,100537.00
2023-04-27T15:58:16.716Z,100537.00
2023-04-27T16:00:44.397Z,100537.00
2023-04-27T16:03:14.582Z,100528.00
2023-04-27T16:05:42.493Z,100531.00
2023-04-27T16:08:10.209Z,100533.00
2023-04-27T16:10:38.113Z,100535.00
2023-04-27T16:13:05.849Z,100530.00
2023-04-27T16:15:33.529Z,100527.00
2023-04-27T16:18:02.488Z,100527.00
2023-04-27T16:20:33.127Z,100524.00
2023-04-27T16:23:03.315Z,100519.00
2023-04-27T16:25:31.317Z,100509.00
2023-04-27T16:28:00.461Z,100511.00
2023-04-27T16:30:28.721Z,100510.00
2023-04-27T16:32:59.749Z,100508.00
2023-04-27T16:35:29.509Z,100504.00
2023-04-27T16:37:57.505Z,100508.00
2023-04-27T16:40:25.866Z,100510.00
2023-04-27T16:42:55.464Z,100505.00
2023-04-27T16:45:23.302Z,100507.00
2023-04-27T16:47:51.038Z,100509.00
2023-04-27T16:50:18.865Z,100509.00
2023-04-27T16:52:46.897Z,100506.00
2023-04-27T16:55:14.835Z,100514.00
2023-04-27T16:57:42.850Z,100515.00
2023-04-27T17:00:12.493Z,100520.00
2023-04-27T17:02:42.958Z,100515.00
2023-04-27T17:05:12.459Z,100520.00
2023-04-27T17:07:40.207Z,100518.00
2023-04-27T17:10:09.554Z,100526.00
2023-04-27T17:12:37.826Z,100523.00
2023-04-27T17:15:07.658Z,100526.00
2023-04-27T17:17:35.752Z,100537.00
2023-04-27T17:20:03.852Z,100527.00
2023-04-27T17:22:33.101Z,100526.00
2023-04-27T17:25:01.237Z,100526.00
2023-04-27T17:27:29.946Z,100525.00
2023-04-27T17:29:57.966Z,100520.00
2023-04-27T17:32:26.446Z,100534.00
2023-04-27T17:34:55.002Z,100519.00
2023-04-27T17:37:22.883Z,100518.00
2023-04-27T17:39:54.652Z,100520.00
2023-04-27T17:42:22.821Z,100512.00
2023-04-27T17:44:50.692Z,100520.00
2023-04-27T17:47:20.886Z,100519.00
2023-04-27T17:49:48.990Z,100509.00
2023-04-27T17:52:16.800Z,100512.00
2023-04-27T17:54:44.417Z,100501.00
2023-04-27T17:57:11.942Z,100500.00
2023-04-27T17:59:39.685Z,100494.00
2023-04-27T18:02:07.985Z,100497.00
2023-04-27T18:04:36.069Z,100491.00
2023-04-27T18:07:03.829Z,100483.00
2023-04-27T18:09:33.174Z,100489.00
2023-04-27T18:12:02.565Z,100484.00
2023-04-27T18:14:31.013Z,100492.00
2023-04-27T18:16:59.419Z,100492.00
2023-04-27T18:19:27.632Z,100502.00
2023-04-27T18:21:56.157Z,100497.00
2023-04-27T18:24:24.425Z,100492.00
2023-04-27T18:26:52.508Z,100498.00
2023-04-27T18:29:20.951Z,100494.00
2023-04-27T18:31:49.574Z,100504.00
2023-04-27T18:34:17.306Z,100502.00
2023-04-27T18:36:50.211Z,100501.00
2023-04-27T18:39:20.740Z,100504.00
2023-04-27T18:41:48.533Z,100510.00
2023-04-27T18:44:17.098Z,100509.00
2023-04-27T18:46:45.948Z,100504.00
2023-04-27T18:49:13.973Z,100506.00
2023-04-27T18:51:42.201Z,100498.00
2023-04-27T18:54:10.024Z,100496.00
2023-04-27T18:56:38.017Z,100506.00
2023-04-27T18:59:06.409Z,100506.00
2023-04-27T19:01:34.539Z,100502.00
2023-04-27T19:04:02.736Z,100502.00
2023-04-27T19:06:31.723Z,100502.00
2023-04-27T19:09:00.628Z,100515.00
2023-04-27T19:11:29.444Z,100520.00
2023-04-27T19:13:57.579Z,100512.00
2023-04-27T19:16:25.492Z,100522.00
2023-04-27T19:18:54.035Z,100525.00
2023-04-27T19:21:21.831Z,100522.00
2023-04-27T19:23:49.715Z,100521.00
2023-04-27T19:26:17.486Z,100522.00
2023-04-27T19:28:45.228Z,100517.00
2023-04-27T19:31:12.940Z,100516.00
2023-04-27T19:33:46.816Z,100521.00
2023-04-27T19:36:15.395Z,100523.00
2023-04-27T19:38:43.267Z,100513.00
2023-04-27T19:41:14.168Z,100516.00
2023-04-27T19:43:42.717Z,100517.00
2023-04-27T19:46:15.443Z,100516.00
2023-04-27T19:48:43.331Z,100518.00
2023-04-27T19:51:11.241Z,100512.00
2023-04-27T19:53:39.297Z,100508.00
2023-04-27T19:56:08.295Z,100509.00
2023-04-27T19:58:37.364Z,100506.00
2023-04-27T20:01:05.295Z,100498.00
2023-04-27T20:03:33.319Z,100492.00
2023-04-27T20:06:01.729Z,100495.00
2023-04-27T20:08:30.128Z,100494.00
2023-04-27T20:10:57.872Z,100492.00
2023-04-27T20:13:25.677Z,100493.00
2023-04-27T20:15:53.909Z,100489.00
2023-04-27T20:18:22.068Z,100497.00
2023-04-27T20:20:50.904Z,100492.00
2023-04-27T20:23:19.650Z,100493.00
2023-04-27T20:25:47.369Z,100499.00
2023-04-27T20:28:15.215Z,100491.00
2023-04-27T20:30:42.814Z,100500.00
2023-04-27T20:33:12.888Z,100493.00
2023-04-27T20:35:41.017Z,100497.00
2023-04-27T20:38:09.091Z,100495.00
2023-04-27T20:40:38.513Z,100499.00
2023-04-27T20:43:06.663Z,100498.00
2023-04-27T20:45:34.592Z,100490.00
2023-04-27T20:48:03.555Z,100491.00
2023-04-27T20:50:31.414Z,100487.00
2023-04-27T20:52:59.177Z,100488.00
2023-04-27T20:55:27.450Z,100491.00
2023-04-27T20:57:55.553Z,100485.00
2023-04-27T21:00:23.547Z,100481.00
2023-04-27T21:02:56.733Z,100485.00
2023-04-27T21:05:26.077Z,100490.00
2023-04-27T21:07:54.249Z,100489.00
2023-04-27T21:10:22.061Z,100500.00
2023-04-27T21:12:49.903Z,100492.00
2023-04-27T21:15:17.546Z,100494.00
2023-04-27T21:17:45.720Z,100483.00
2023-04-27T21:20:13.416Z,100494.00
2023-04-27T21:22:41.213Z,100487.00
2023-04-27T21:25:13.201Z,100492.00
2023-04-27T21:27:43.334Z,100490.00
2023-04-27T21:30:11.796Z,100490.00
2023-04-27T21:32:39.877Z,100485.00
2023-04-27T21:35:09.263Z,100483.00
2023-04-27T21:37:37.672Z,100477.00
2023-04-27T21:40:06.648Z,100479.00
2023-04-27T21:42:34.492Z,100468.00
2023-04-27T21:45:05.000Z,100472.00
2023-04-27T21:47:32.916Z,100467.00
2023-04-27T21:50:00.876Z,100466.00
2023-04-27T21:52:28.630Z,100467.00
2023-04-27T21:54:56.547Z,100456.00
2023-04-27T21:57:27.510Z,100470.00
2023-04-27T21:59:57.380Z,100464.00
2023-04-27T22:02:25.659Z,100458.00
2023-04-27T22:04:54.099Z,100455.00
2023-04-27T22:07:22.026Z,100458.00
2023-04-27T22:09:49.715Z,100453.00
2023-04-27T22:12:17.563Z,100460.00
2023-04-27T22:14:47.179Z,100450.00
2023-04-27T22:17:15.473Z,100450.00
2023-04-27T22:19:45.466Z,100453.00
2023-04-27T22:22:13.940Z,100448.00
2023-04-27T22:24:41.742Z,100452.00
2023-04-27T22:27:11.963Z,100433.00
2023-04-27T22:29:39.606Z,100445.00
2023-04-27T22:32:08.511Z,100436.00
2023-04-27T22:34:37.922Z,100434.00
2023-04-27T22:37:06.299Z,100423.00
2023-04-27T22:39:35.144Z,100430.00
2023-04-27T22:42:03.570Z,100427.00
2023-04-27T22:44:31.969Z,100419.00
2023-04-27T22:47:02.957Z,100425.00
2023-04-27T22:49:32.165Z,100418.00
2023-04-27T22:52:01.445Z,100414.00
2023-04-27T22:54:30.733Z,100412.00
2023-04-27T22:56:59.110Z,100406.00
2023-04-27T22:59:27.460Z,100404.00
2023-04-27T23:01:56.059Z,100400.00
2023-04-27T23:04:25.162Z,100396.00
2023-04-27T23:06:54.055Z,100390.00
2023-04-27T23:09:26.145Z,100392.00
2023-04-27T23:11:54.019Z,100388.00
2023-04-27T23:14:21.608Z,100388.00
2023-04-27T23:16:49.160Z,100383.00
2023-04-27T23:19:18.336Z,100375.00
2023-04-27T23:21:46.087Z,100381.00
2023-04-27T23:24:17.533Z,100390.00
2023-04-27T23:26:45.831Z,100376.00
2023-04-27T23:29:15.336Z,100379.00
2023-04-27T23:31:43.530Z,100374.00
2023-04-27T23:34:11.291Z,100378.00
2023-04-27T23:36:39.215Z,100372.00
2023-04-27T23:39:10.026Z,100368.00
2023-04-27T23:41:38.740Z,100367.00
2023-04-27T23:44:07.303Z,100363.00
2023-04-27T23:46:35.540Z,100359.00
2023-04-27T23:49:06.136Z,100349.00
2023-04-27T23:51:34.515Z,100352.00
2023-04-27T23:54:02.792Z,100347.00
2023-04-27T23:56:31.577Z,100345.00
2023-04-27T23:59:00.945Z,100348.00
